sensor_id;sensor_type;location;lat;lon;timestamp;P1;durP1;ratioP1;P2;durP2;ratioP2
22579;SDS011;11456;47.030;15.396;2023-08-06T00:00:54;2.03;;;1.00;;
22579;SDS011;11456;47.030;15.396;2023-08-06T00:03:21;1.60;;;1.40;;
22579;SDS011;11456;47.030;15.396;2023-08-06T00:05:48;1.77;;;1.23;;
22579;SDS011;11456;47.030;15.396;2023-08-06T00:08:15;1.90;;;1.10;;
22579;SDS011;11456;47.030;15.396;2023-08-06T00:10:41;2.67;;;1.40;;
22579;SDS011;11456;47.030;15.396;2023-08-06T00:13:08;1.42;;;1.33;;
22579;SDS011;11456;47.030;15.396;2023-08-06T00:15:35;1.50;;;1.40;;
22579;SDS011;11456;47.030;15.396;2023-08-06T00:18:02;3.05;;;1.65;;
22579;SDS011;11456;47.030;15.396;2023-08-06T00:20:28;2.88;;;1.30;;
22579;SDS011;11456;47.030;15.396;2023-08-06T00:22:55;1.67;;;1.50;;
22579;SDS011;11456;47.030;15.396;2023-08-06T00:25:22;4.22;;;1.88;;
22579;SDS011;11456;47.030;15.396;2023-08-06T00:27:48;2.53;;;1.60;;
22579;SDS011;11456;47.030;15.396;2023-08-06T00:30:15;1.48;;;1.38;;
22579;SDS011;11456;47.030;15.396;2023-08-06T00:32:42;1.85;;;1.50;;
22579;SDS011;11456;47.030;15.396;2023-08-06T00:35:09;1.45;;;1.35;;
22579;SDS011;11456;47.030;15.396;2023-08-06T00:37:36;4.15;;;1.35;;
22579;SDS011;11456;47.030;15.396;2023-08-06T00:40:03;2.78;;;1.48;;
22579;SDS011;11456;47.030;15.396;2023-08-06T00:42:30;1.40;;;1.30;;
22579;SDS011;11456;47.030;15.396;2023-08-06T00:44:56;1.38;;;1.27;;
22579;SDS011;11456;47.030;15.396;2023-08-06T00:47:23;4.32;;;1.23;;
22579;SDS011;11456;47.030;15.396;2023-08-06T00:49:51;1.25;;;1.15;;
22579;SDS011;11456;47.030;15.396;2023-08-06T00:52:18;2.20;;;0.85;;
22579;SDS011;11456;47.030;15.396;2023-08-06T00:54:44;4.70;;;0.70;;
22579;SDS011;11456;47.030;15.396;2023-08-06T00:57:11;2.67;;;0.98;;
22579;SDS011;11456;47.030;15.396;2023-08-06T00:59:38;1.02;;;0.80;;
22579;SDS011;11456;47.030;15.396;2023-08-06T01:02:05;2.67;;;0.90;;
22579;SDS011;11456;47.030;15.396;2023-08-06T01:04:32;2.58;;;0.63;;
22579;SDS011;11456;47.030;15.396;2023-08-06T01:07:06;2.65;;;0.50;;
22579;SDS011;11456;47.030;15.396;2023-08-06T01:17:50;0.55;;;0.40;;
22579;SDS011;11456;47.030;15.396;2023-08-06T01:20:18;2.38;;;0.50;;
22579;SDS011;11456;47.030;15.396;2023-08-06T01:22:45;2.45;;;0.50;;
22579;SDS011;11456;47.030;15.396;2023-08-06T01:25:13;1.13;;;0.43;;
22579;SDS011;11456;47.030;15.396;2023-08-06T01:27:44;3.42;;;0.60;;
22579;SDS011;11456;47.030;15.396;2023-08-06T01:30:12;1.63;;;0.50;;
22579;SDS011;11456;47.030;15.396;2023-08-06T01:32:44;2.40;;;0.45;;
22579;SDS011;11456;47.030;15.396;2023-08-06T01:35:13;0.55;;;0.40;;
22579;SDS011;11456;47.030;15.396;2023-08-06T01:37:43;1.73;;;0.82;;
22579;SDS011;11456;47.030;15.396;2023-08-06T01:40:10;2.80;;;0.60;;
22579;SDS011;11456;47.030;15.396;2023-08-06T01:42:38;3.85;;;0.75;;
22579;SDS011;11456;47.030;15.396;2023-08-06T01:45:07;1.45;;;0.50;;
22579;SDS011;11456;47.030;15.396;2023-08-06T01:47:35;1.38;;;0.40;;
22579;SDS011;11456;47.030;15.396;2023-08-06T01:50:02;3.95;;;0.68;;
22579;SDS011;11456;47.030;15.396;2023-08-06T01:52:29;0.77;;;0.47;;
22579;SDS011;11456;47.030;15.396;2023-08-06T01:54:56;1.30;;;0.50;;
22579;SDS011;11456;47.030;15.396;2023-08-06T01:57:23;2.95;;;0.50;;
22579;SDS011;11456;47.030;15.396;2023-08-06T01:59:50;0.38;;;0.38;;
22579;SDS011;11456;47.030;15.396;2023-08-06T02:02:17;0.52;;;0.45;;
22579;SDS011;11456;47.030;15.396;2023-08-06T02:04:43;1.95;;;0.40;;
22579;SDS011;11456;47.030;15.396;2023-08-06T02:07:11;0.40;;;0.40;;
22579;SDS011;11456;47.030;15.396;2023-08-06T02:09:38;3.45;;;0.50;;
22579;SDS011;11456;47.030;15.396;2023-08-06T02:12:04;5.40;;;0.70;;
22579;SDS011;11456;47.030;15.396;2023-08-06T02:14:32;1.63;;;0.30;;
22579;SDS011;11456;47.030;15.396;2023-08-06T02:16:59;0.50;;;0.47;;
22579;SDS011;11456;47.030;15.396;2023-08-06T02:19:25;1.08;;;0.40;;
22579;SDS011;11456;47.030;15.396;2023-08-06T02:21:52;1.58;;;0.40;;
22579;SDS011;11456;47.030;15.396;2023-08-06T02:24:20;2.20;;;0.60;;
22579;SDS011;11456;47.030;15.396;2023-08-06T02:26:47;3.83;;;0.50;;
22579;SDS011;11456;47.030;15.396;2023-08-06T02:29:17;5.65;;;0.35;;
22579;SDS011;11456;47.030;15.396;2023-08-06T02:31:44;1.33;;;0.40;;
22579;SDS011;11456;47.030;15.396;2023-08-06T02:34:11;0.47;;;0.40;;
22579;SDS011;11456;47.030;15.396;2023-08-06T02:36:37;0.52;;;0.52;;
22579;SDS011;11456;47.030;15.396;2023-08-06T02:39:05;4.75;;;0.57;;
22579;SDS011;11456;47.030;15.396;2023-08-06T02:41:32;1.48;;;0.50;;
22579;SDS011;11456;47.030;15.396;2023-08-06T02:43:59;3.35;;;0.50;;
22579;SDS011;11456;47.030;15.396;2023-08-06T02:46:26;2.67;;;0.60;;
22579;SDS011;11456;47.030;15.396;2023-08-06T02:48:53;2.90;;;0.70;;
22579;SDS011;11456;47.030;15.396;2023-08-06T02:51:20;1.13;;;0.52;;
22579;SDS011;11456;47.030;15.396;2023-08-06T02:53:47;1.42;;;0.50;;
22579;SDS011;11456;47.030;15.396;2023-08-06T02:56:17;2.42;;;0.93;;
22579;SDS011;11456;47.030;15.396;2023-08-06T02:58:53;11.57;;;0.88;;
22579;SDS011;11456;47.030;15.396;2023-08-06T03:01:30;1.38;;;0.60;;
22579;SDS011;11456;47.030;15.396;2023-08-06T03:04:04;0.82;;;0.70;;
22579;SDS011;11456;47.030;15.396;2023-08-06T03:06:36;2.80;;;0.90;;
22579;SDS011;11456;47.030;15.396;2023-08-06T03:09:03;0.85;;;0.73;;
22579;SDS011;11456;47.030;15.396;2023-08-06T03:11:29;5.97;;;1.00;;
22579;SDS011;11456;47.030;15.396;2023-08-06T03:14:02;2.95;;;0.70;;
22579;SDS011;11456;47.030;15.396;2023-08-06T03:16:29;2.53;;;0.70;;
22579;SDS011;11456;47.030;15.396;2023-08-06T03:18:59;2.65;;;0.70;;
22579;SDS011;11456;47.030;15.396;2023-08-06T03:21:27;2.63;;;0.68;;
22579;SDS011;11456;47.030;15.396;2023-08-06T03:23:54;3.22;;;0.65;;
22579;SDS011;11456;47.030;15.396;2023-08-06T03:26:24;2.30;;;0.63;;
22579;SDS011;11456;47.030;15.396;2023-08-06T03:28:51;3.00;;;0.77;;
22579;SDS011;11456;47.030;15.396;2023-08-06T03:31:18;4.18;;;0.70;;
22579;SDS011;11456;47.030;15.396;2023-08-06T03:33:45;6.90;;;0.60;;
22579;SDS011;11456;47.030;15.396;2023-08-06T03:36:15;0.90;;;0.73;;
22579;SDS011;11456;47.030;15.396;2023-08-06T03:38:42;0.50;;;0.50;;
22579;SDS011;11456;47.030;15.396;2023-08-06T03:41:11;1.85;;;0.70;;
22579;SDS011;11456;47.030;15.396;2023-08-06T03:43:38;2.90;;;0.98;;
22579;SDS011;11456;47.030;15.396;2023-08-06T03:46:09;1.30;;;1.00;;
22579;SDS011;11456;47.030;15.396;2023-08-06T03:48:36;4.78;;;1.00;;
22579;SDS011;11456;47.030;15.396;2023-08-06T03:51:03;1.10;;;1.00;;
22579;SDS011;11456;47.030;15.396;2023-08-06T03:53:30;11.50;;;1.75;;
22579;SDS011;11456;47.030;15.396;2023-08-06T03:55:57;1.13;;;1.00;;
22579;SDS011;11456;47.030;15.396;2023-08-06T03:58:27;2.65;;;1.08;;
22579;SDS011;11456;47.030;15.396;2023-08-06T04:00:58;3.28;;;0.70;;
22579;SDS011;11456;47.030;15.396;2023-08-06T04:03:40;0.60;;;0.60;;
22579;SDS011;11456;47.030;15.396;2023-08-06T04:06:07;1.08;;;0.80;;
22579;SDS011;11456;47.030;15.396;2023-08-06T04:08:35;2.42;;;1.20;;
22579;SDS011;11456;47.030;15.396;2023-08-06T04:11:02;4.70;;;0.98;;
22579;SDS011;11456;47.030;15.396;2023-08-06T04:13:29;2.75;;;0.80;;
22579;SDS011;11456;47.030;15.396;2023-08-06T04:16:00;1.60;;;0.80;;
22579;SDS011;11456;47.030;15.396;2023-08-06T04:18:31;3.10;;;0.90;;
22579;SDS011;11456;47.030;15.396;2023-08-06T04:20:58;1.52;;;0.90;;
22579;SDS011;11456;47.030;15.396;2023-08-06T04:23:24;1.48;;;0.90;;
22579;SDS011;11456;47.030;15.396;2023-08-06T04:25:57;2.38;;;0.80;;
22579;SDS011;11456;47.030;15.396;2023-08-06T04:28:28;2.97;;;0.70;;
22579;SDS011;11456;47.030;15.396;2023-08-06T04:30:56;3.25;;;0.80;;
22579;SDS011;11456;47.030;15.396;2023-08-06T04:33:23;1.55;;;0.90;;
22579;SDS011;11456;47.030;15.396;2023-08-06T04:35:54;3.80;;;0.80;;
22579;SDS011;11456;47.030;15.396;2023-08-06T04:38:23;3.63;;;1.08;;
22579;SDS011;11456;47.030;15.396;2023-08-06T04:40:52;2.17;;;0.90;;
22579;SDS011;11456;47.030;15.396;2023-08-06T04:43:20;2.15;;;0.90;;
22579;SDS011;11456;47.030;15.396;2023-08-06T04:45:48;3.45;;;1.00;;
22579;SDS011;11456;47.030;15.396;2023-08-06T04:50:47;1.60;;;0.95;;
22579;SDS011;11456;47.030;15.396;2023-08-06T04:53:15;4.82;;;1.08;;
22579;SDS011;11456;47.030;15.396;2023-08-06T04:55:42;1.83;;;0.88;;
22579;SDS011;11456;47.030;15.396;2023-08-06T04:58:09;3.70;;;0.90;;
22579;SDS011;11456;47.030;15.396;2023-08-06T05:00:36;2.72;;;0.80;;
22579;SDS011;11456;47.030;15.396;2023-08-06T05:03:04;5.13;;;0.90;;
22579;SDS011;11456;47.030;15.396;2023-08-06T05:05:31;1.15;;;0.80;;
22579;SDS011;11456;47.030;15.396;2023-08-06T05:07:58;4.40;;;1.27;;
22579;SDS011;11456;47.030;15.396;2023-08-06T05:10:25;1.90;;;1.02;;
22579;SDS011;11456;47.030;15.396;2023-08-06T05:12:52;2.83;;;1.05;;
22579;SDS011;11456;47.030;15.396;2023-08-06T05:15:19;1.95;;;1.20;;
22579;SDS011;11456;47.030;15.396;2023-08-06T05:17:46;4.22;;;1.00;;
22579;SDS011;11456;47.030;15.396;2023-08-06T05:20:13;6.72;;;1.60;;
22579;SDS011;11456;47.030;15.396;2023-08-06T05:22:40;5.30;;;1.75;;
22579;SDS011;11456;47.030;15.396;2023-08-06T05:25:06;3.88;;;1.80;;
22579;SDS011;11456;47.030;15.396;2023-08-06T05:27:34;3.67;;;1.77;;
22579;SDS011;11456;47.030;15.396;2023-08-06T05:30:00;6.40;;;1.95;;
22579;SDS011;11456;47.030;15.396;2023-08-06T05:32:27;2.95;;;1.58;;
22579;SDS011;11456;47.030;15.396;2023-08-06T05:34:54;6.60;;;1.60;;
22579;SDS011;11456;47.030;15.396;2023-08-06T05:37:20;6.85;;;1.65;;
22579;SDS011;11456;47.030;15.396;2023-08-06T05:39:47;5.32;;;1.38;;
22579;SDS011;11456;47.030;15.396;2023-08-06T05:42:14;2.60;;;1.08;;
22579;SDS011;11456;47.030;15.396;2023-08-06T05:44:40;2.30;;;1.17;;
22579;SDS011;11456;47.030;15.396;2023-08-06T05:47:07;8.27;;;1.48;;
22579;SDS011;11456;47.030;15.396;2023-08-06T05:49:34;4.95;;;0.90;;
22579;SDS011;11456;47.030;15.396;2023-08-06T05:52:00;3.03;;;1.05;;
22579;SDS011;11456;47.030;15.396;2023-08-06T05:54:29;4.57;;;0.95;;
22579;SDS011;11456;47.030;15.396;2023-08-06T05:56:56;2.58;;;0.90;;
22579;SDS011;11456;47.030;15.396;2023-08-06T05:59:22;1.27;;;0.70;;
22579;SDS011;11456;47.030;15.396;2023-08-06T06:01:49;3.38;;;0.80;;
22579;SDS011;11456;47.030;15.396;2023-08-06T06:04:16;4.10;;;1.40;;
22579;SDS011;11456;47.030;15.396;2023-08-06T06:06:42;4.13;;;0.80;;
22579;SDS011;11456;47.030;15.396;2023-08-06T06:09:09;1.90;;;1.02;;
22579;SDS011;11456;47.030;15.396;2023-08-06T06:11:36;2.65;;;1.00;;
22579;SDS011;11456;47.030;15.396;2023-08-06T06:14:03;2.67;;;0.82;;
22579;SDS011;11456;47.030;15.396;2023-08-06T06:16:29;1.95;;;1.05;;
22579;SDS011;11456;47.030;15.396;2023-08-06T06:18:56;1.00;;;0.93;;
22579;SDS011;11456;47.030;15.396;2023-08-06T06:21:23;2.65;;;1.00;;
22579;SDS011;11456;47.030;15.396;2023-08-06T06:23:50;2.30;;;1.10;;
22579;SDS011;11456;47.030;15.396;2023-08-06T06:26:20;1.30;;;1.20;;
22579;SDS011;11456;47.030;15.396;2023-08-06T06:28:46;1.10;;;1.00;;
22579;SDS011;11456;47.030;15.396;2023-08-06T06:31:13;1.65;;;1.10;;
22579;SDS011;11456;47.030;15.396;2023-08-06T06:33:39;1.50;;;1.10;;
22579;SDS011;11456;47.030;15.396;2023-08-06T06:36:06;4.00;;;1.30;;
22579;SDS011;11456;47.030;15.396;2023-08-06T06:38:34;1.30;;;0.90;;
22579;SDS011;11456;47.030;15.396;2023-08-06T06:41:01;2.83;;;1.00;;
22579;SDS011;11456;47.030;15.396;2023-08-06T06:43:29;2.58;;;0.80;;
22579;SDS011;11456;47.030;15.396;2023-08-06T06:45:56;1.48;;;1.15;;
22579;SDS011;11456;47.030;15.396;2023-08-06T06:48:27;3.42;;;0.90;;
22579;SDS011;11456;47.030;15.396;2023-08-06T06:50:55;2.20;;;1.00;;
22579;SDS011;11456;47.030;15.396;2023-08-06T06:53:22;1.65;;;1.08;;
22579;SDS011;11456;47.030;15.396;2023-08-06T06:55:54;2.75;;;0.98;;
22579;SDS011;11456;47.030;15.396;2023-08-06T06:58:27;5.28;;;0.80;;
22579;SDS011;11456;47.030;15.396;2023-08-06T07:00:54;0.85;;;0.80;;
22579;SDS011;11456;47.030;15.396;2023-08-06T07:03:21;0.90;;;0.80;;
22579;SDS011;11456;47.030;15.396;2023-08-06T07:05:48;0.93;;;0.77;;
22579;SDS011;11456;47.030;15.396;2023-08-06T07:08:16;0.88;;;0.70;;
22579;SDS011;11456;47.030;15.396;2023-08-06T07:10:43;2.63;;;0.90;;
22579;SDS011;11456;47.030;15.396;2023-08-06T07:13:10;1.60;;;0.90;;
22579;SDS011;11456;47.030;15.396;2023-08-06T07:15:36;1.38;;;1.00;;
22579;SDS011;11456;47.030;15.396;2023-08-06T07:18:03;1.23;;;0.90;;
22579;SDS011;11456;47.030;15.396;2023-08-06T07:20:30;1.90;;;1.20;;
22579;SDS011;11456;47.030;15.396;2023-08-06T07:22:58;1.50;;;1.08;;
22579;SDS011;11456;47.030;15.396;2023-08-06T07:25:25;2.50;;;0.90;;
22579;SDS011;11456;47.030;15.396;2023-08-06T07:27:52;1.70;;;0.93;;
22579;SDS011;11456;47.030;15.396;2023-08-06T07:30:18;1.95;;;1.05;;
22579;SDS011;11456;47.030;15.396;2023-08-06T07:32:45;1.98;;;1.02;;
22579;SDS011;11456;47.030;15.396;2023-08-06T07:35:12;2.15;;;1.17;;
22579;SDS011;11456;47.030;15.396;2023-08-06T07:37:40;1.08;;;0.98;;
22579;SDS011;11456;47.030;15.396;2023-08-06T07:40:07;2.17;;;1.27;;
22579;SDS011;11456;47.030;15.396;2023-08-06T07:42:35;2.97;;;1.38;;
22579;SDS011;11456;47.030;15.396;2023-08-06T07:45:02;1.10;;;0.90;;
22579;SDS011;11456;47.030;15.396;2023-08-06T07:47:29;1.20;;;1.10;;
22579;SDS011;11456;47.030;15.396;2023-08-06T07:49:55;1.85;;;1.23;;
22579;SDS011;11456;47.030;15.396;2023-08-06T07:52:22;3.90;;;1.08;;
22579;SDS011;11456;47.030;15.396;2023-08-06T07:54:49;3.35;;;1.35;;
22579;SDS011;11456;47.030;15.396;2023-08-06T07:57:15;1.60;;;1.20;;
22579;SDS011;11456;47.030;15.396;2023-08-06T07:59:42;1.60;;;1.50;;
22579;SDS011;11456;47.030;15.396;2023-08-06T08:02:09;1.50;;;1.40;;
22579;SDS011;11456;47.030;15.396;2023-08-06T08:04:36;5.53;;;1.40;;
22579;SDS011;11456;47.030;15.396;2023-08-06T08:07:02;2.25;;;1.20;;
22579;SDS011;11456;47.030;15.396;2023-08-06T08:09:29;5.25;;;0.90;;
22579;SDS011;11456;47.030;15.396;2023-08-06T08:11:56;1.40;;;1.00;;
22579;SDS011;11456;47.030;15.396;2023-08-06T08:14:26;1.20;;;1.00;;
22579;SDS011;11456;47.030;15.396;2023-08-06T08:16:53;2.42;;;0.80;;
22579;SDS011;11456;47.030;15.396;2023-08-06T08:19:19;1.00;;;0.90;;
22579;SDS011;11456;47.030;15.396;2023-08-06T08:21:47;1.25;;;0.98;;
22579;SDS011;11456;47.030;15.396;2023-08-06T08:24:14;2.78;;;1.13;;
22579;SDS011;11456;47.030;15.396;2023-08-06T08:26:40;1.75;;;0.80;;
22579;SDS011;11456;47.030;15.396;2023-08-06T08:29:07;2.47;;;0.75;;
22579;SDS011;11456;47.030;15.396;2023-08-06T08:31:34;1.55;;;0.80;;
22579;SDS011;11456;47.030;15.396;2023-08-06T08:34:05;2.50;;;0.90;;
22579;SDS011;11456;47.030;15.396;2023-08-06T08:36:32;2.63;;;0.75;;
22579;SDS011;11456;47.030;15.396;2023-08-06T08:38:59;2.22;;;0.75;;
22579;SDS011;11456;47.030;15.396;2023-08-06T08:41:27;2.40;;;0.75;;
22579;SDS011;11456;47.030;15.396;2023-08-06T08:43:56;2.85;;;1.00;;
22579;SDS011;11456;47.030;15.396;2023-08-06T08:46:26;2.15;;;1.10;;
22579;SDS011;11456;47.030;15.396;2023-08-06T08:48:54;1.50;;;1.20;;
22579;SDS011;11456;47.030;15.396;2023-08-06T08:51:22;3.35;;;0.63;;
22579;SDS011;11456;47.030;15.396;2023-08-06T08:53:49;5.18;;;0.80;;
22579;SDS011;11456;47.030;15.396;2023-08-06T08:56:19;1.55;;;0.80;;
22579;SDS011;11456;47.030;15.396;2023-08-06T08:58:46;1.13;;;0.70;;
22579;SDS011;11456;47.030;15.396;2023-08-06T09:01:13;0.90;;;0.90;;
22579;SDS011;11456;47.030;15.396;2023-08-06T09:03:41;0.73;;;0.60;;
22579;SDS011;11456;47.030;15.396;2023-08-06T09:06:10;2.05;;;0.77;;
22579;SDS011;11456;47.030;15.396;2023-08-06T09:08:43;0.60;;;0.60;;
22579;SDS011;11456;47.030;15.396;2023-08-06T09:11:17;1.73;;;0.80;;
22579;SDS011;11456;47.030;15.396;2023-08-06T09:13:47;1.48;;;0.95;;
22579;SDS011;11456;47.030;15.396;2023-08-06T09:16:13;1.75;;;1.00;;
22579;SDS011;11456;47.030;15.396;2023-08-06T09:18:40;0.82;;;0.82;;
22579;SDS011;11456;47.030;15.396;2023-08-06T09:21:07;1.85;;;1.10;;
22579;SDS011;11456;47.030;15.396;2023-08-06T09:23:40;2.67;;;1.40;;
22579;SDS011;11456;47.030;15.396;2023-08-06T09:26:07;11.60;;;1.35;;
22579;SDS011;11456;47.030;15.396;2023-08-06T09:28:40;2.45;;;1.10;;
22579;SDS011;11456;47.030;15.396;2023-08-06T09:31:09;2.60;;;1.50;;
22579;SDS011;11456;47.030;15.396;2023-08-06T09:33:37;2.60;;;1.40;;
22579;SDS011;11456;47.030;15.396;2023-08-06T09:36:11;2.10;;;1.27;;
22579;SDS011;11456;47.030;15.396;2023-08-06T09:38:38;3.53;;;1.00;;
22579;SDS011;11456;47.030;15.396;2023-08-06T09:41:06;1.50;;;1.30;;
22579;SDS011;11456;47.030;15.396;2023-08-06T09:43:40;2.30;;;0.85;;
22579;SDS011;11456;47.030;15.396;2023-08-06T09:46:13;3.42;;;1.58;;
22579;SDS011;11456;47.030;15.396;2023-08-06T09:48:46;6.00;;;1.13;;
22579;SDS011;11456;47.030;15.396;2023-08-06T09:51:13;3.00;;;1.30;;
22579;SDS011;11456;47.030;15.396;2023-08-06T09:53:40;3.20;;;1.50;;
22579;SDS011;11456;47.030;15.396;2023-08-06T09:56:08;3.83;;;1.40;;
22579;SDS011;11456;47.030;15.396;2023-08-06T09:58:37;2.42;;;1.40;;
22579;SDS011;11456;47.030;15.396;2023-08-06T10:01:04;1.90;;;1.50;;
22579;SDS011;11456;47.030;15.396;2023-08-06T10:03:32;2.00;;;1.40;;
22579;SDS011;11456;47.030;15.396;2023-08-06T10:06:00;5.45;;;1.40;;
22579;SDS011;11456;47.030;15.396;2023-08-06T10:08:32;3.25;;;1.42;;
22579;SDS011;11456;47.030;15.396;2023-08-06T10:10:59;3.47;;;1.33;;
22579;SDS011;11456;47.030;15.396;2023-08-06T10:13:29;4.53;;;1.40;;
22579;SDS011;11456;47.030;15.396;2023-08-06T10:15:57;2.67;;;1.25;;
22579;SDS011;11456;47.030;15.396;2023-08-06T10:18:23;2.25;;;1.35;;
22579;SDS011;11456;47.030;15.396;2023-08-06T10:20:51;2.50;;;1.30;;
22579;SDS011;11456;47.030;15.396;2023-08-06T10:23:18;1.08;;;0.98;;
22579;SDS011;11456;47.030;15.396;2023-08-06T10:25:47;2.55;;;1.23;;
22579;SDS011;11456;47.030;15.396;2023-08-06T10:28:22;0.85;;;0.80;;
22579;SDS011;11456;47.030;15.396;2023-08-06T10:30:48;1.25;;;1.00;;
22579;SDS011;11456;47.030;15.396;2023-08-06T10:33:16;1.00;;;0.90;;
22579;SDS011;11456;47.030;15.396;2023-08-06T10:35:46;2.63;;;1.08;;
22579;SDS011;11456;47.030;15.396;2023-08-06T10:38:20;0.80;;;0.80;;
22579;SDS011;11456;47.030;15.396;2023-08-06T10:41:01;2.60;;;1.10;;
22579;SDS011;11456;47.030;15.396;2023-08-06T10:43:32;2.47;;;0.80;;
22579;SDS011;11456;47.030;15.396;2023-08-06T10:46:03;3.25;;;0.90;;
22579;SDS011;11456;47.030;15.396;2023-08-06T10:48:39;1.52;;;1.05;;
22579;SDS011;11456;47.030;15.396;2023-08-06T10:51:08;1.48;;;1.08;;
22579;SDS011;11456;47.030;15.396;2023-08-06T10:53:36;3.17;;;1.60;;
22579;SDS011;11456;47.030;15.396;2023-08-06T10:56:23;2.35;;;1.00;;
22579;SDS011;11456;47.030;15.396;2023-08-06T10:58:55;2.03;;;1.10;;
22579;SDS011;11456;47.030;15.396;2023-08-06T11:01:23;2.75;;;1.20;;
22579;SDS011;11456;47.030;15.396;2023-08-06T11:03:50;3.60;;;0.98;;
22579;SDS011;11456;47.030;15.396;2023-08-06T11:06:19;1.17;;;0.85;;
22579;SDS011;11456;47.030;15.396;2023-08-06T11:08:51;2.85;;;0.98;;
22579;SDS011;11456;47.030;15.396;2023-08-06T11:11:20;5.85;;;1.00;;
22579;SDS011;11456;47.030;15.396;2023-08-06T11:13:49;2.58;;;0.70;;
22579;SDS011;11456;47.030;15.396;2023-08-06T11:16:18;0.80;;;0.80;;
22579;SDS011;11456;47.030;15.396;2023-08-06T11:18:46;0.70;;;0.70;;
22579;SDS011;11456;47.030;15.396;2023-08-06T11:21:13;0.73;;;0.73;;
22579;SDS011;11456;47.030;15.396;2023-08-06T11:23:40;2.15;;;0.75;;
22579;SDS011;11456;47.030;15.396;2023-08-06T11:26:08;0.80;;;0.80;;
22579;SDS011;11456;47.030;15.396;2023-08-06T11:28:35;1.02;;;0.63;;
22579;SDS011;11456;47.030;15.396;2023-08-06T11:31:01;5.07;;;0.82;;
22579;SDS011;11456;47.030;15.396;2023-08-06T11:33:30;2.10;;;0.90;;
22579;SDS011;11456;47.030;15.396;2023-08-06T11:35:59;1.25;;;0.90;;
22579;SDS011;11456;47.030;15.396;2023-08-06T11:38:29;1.45;;;0.90;;
22579;SDS011;11456;47.030;15.396;2023-08-06T11:40:56;0.85;;;0.73;;
22579;SDS011;11456;47.030;15.396;2023-08-06T11:43:23;1.58;;;0.60;;
22579;SDS011;11456;47.030;15.396;2023-08-06T11:45:50;1.00;;;0.90;;
22579;SDS011;11456;47.030;15.396;2023-08-06T11:48:21;2.17;;;0.85;;
22579;SDS011;11456;47.030;15.396;2023-08-06T11:50:48;1.88;;;0.90;;
22579;SDS011;11456;47.030;15.396;2023-08-06T11:53:14;1.88;;;1.10;;
22579;SDS011;11456;47.030;15.396;2023-08-06T11:55:41;1.83;;;0.80;;
22579;SDS011;11456;47.030;15.396;2023-08-06T11:58:09;2.45;;;1.02;;
22579;SDS011;11456;47.030;15.396;2023-08-06T12:00:42;1.02;;;0.80;;
22579;SDS011;11456;47.030;15.396;2023-08-06T12:03:09;0.85;;;0.85;;
22579;SDS011;11456;47.030;15.396;2023-08-06T12:05:37;0.85;;;0.80;;
22579;SDS011;11456;47.030;15.396;2023-08-06T12:08:05;1.00;;;0.70;;
22579;SDS011;11456;47.030;15.396;2023-08-06T12:10:32;0.77;;;0.77;;
22579;SDS011;11456;47.030;15.396;2023-08-06T12:12:59;4.18;;;0.80;;
22579;SDS011;11456;47.030;15.396;2023-08-06T12:15:26;1.77;;;0.80;;
22579;SDS011;11456;47.030;15.396;2023-08-06T12:17:53;1.25;;;0.63;;
22579;SDS011;11456;47.030;15.396;2023-08-06T12:20:20;0.70;;;0.70;;
22579;SDS011;11456;47.030;15.396;2023-08-06T12:22:46;1.45;;;0.77;;
22579;SDS011;11456;47.030;15.396;2023-08-06T12:25:13;1.27;;;0.90;;
22579;SDS011;11456;47.030;15.396;2023-08-06T12:27:41;1.17;;;0.70;;
22579;SDS011;11456;47.030;15.396;2023-08-06T12:30:09;0.85;;;0.73;;
22579;SDS011;11456;47.030;15.396;2023-08-06T12:32:37;0.60;;;0.60;;
22579;SDS011;11456;47.030;15.396;2023-08-06T12:35:04;0.70;;;0.50;;
22579;SDS011;11456;47.030;15.396;2023-08-06T12:37:33;1.35;;;0.88;;
22579;SDS011;11456;47.030;15.396;2023-08-06T12:40:01;1.13;;;0.80;;
22579;SDS011;11456;47.030;15.396;2023-08-06T12:42:49;2.50;;;0.88;;
22579;SDS011;11456;47.030;15.396;2023-08-06T12:45:16;0.80;;;0.80;;
22579;SDS011;11456;47.030;15.396;2023-08-06T12:47:43;1.10;;;0.60;;
22579;SDS011;11456;47.030;15.396;2023-08-06T12:50:10;1.00;;;0.68;;
22579;SDS011;11456;47.030;15.396;2023-08-06T12:52:37;0.70;;;0.70;;
22579;SDS011;11456;47.030;15.396;2023-08-06T12:55:03;0.70;;;0.70;;
22579;SDS011;11456;47.030;15.396;2023-08-06T12:57:30;0.60;;;0.60;;
22579;SDS011;11456;47.030;15.396;2023-08-06T13:00:17;0.70;;;0.68;;
22579;SDS011;11456;47.030;15.396;2023-08-06T13:02:44;1.50;;;0.70;;
22579;SDS011;11456;47.030;15.396;2023-08-06T13:05:10;1.17;;;0.65;;
22579;SDS011;11456;47.030;15.396;2023-08-06T13:07:37;0.85;;;0.57;;
22579;SDS011;11456;47.030;15.396;2023-08-06T13:10:04;1.30;;;0.70;;
22579;SDS011;11456;47.030;15.396;2023-08-06T13:12:31;1.58;;;0.70;;
22579;SDS011;11456;47.030;15.396;2023-08-06T13:14:58;1.08;;;0.85;;
22579;SDS011;11456;47.030;15.396;2023-08-06T13:17:25;1.80;;;0.80;;
22579;SDS011;11456;47.030;15.396;2023-08-06T13:19:53;2.08;;;0.80;;
22579;SDS011;11456;47.030;15.396;2023-08-06T13:22:20;0.32;;;0.32;;
22579;SDS011;11456;47.030;15.396;2023-08-06T13:24:47;0.40;;;0.40;;
22579;SDS011;11456;47.030;15.396;2023-08-06T13:27:13;0.73;;;0.70;;
22579;SDS011;11456;47.030;15.396;2023-08-06T13:29:40;0.60;;;0.50;;
22579;SDS011;11456;47.030;15.396;2023-08-06T13:32:07;3.55;;;0.63;;
22579;SDS011;11456;47.030;15.396;2023-08-06T13:34:33;0.57;;;0.57;;
22579;SDS011;11456;47.030;15.396;2023-08-06T13:37:00;1.75;;;0.50;;
22579;SDS011;11456;47.030;15.396;2023-08-06T13:39:27;0.98;;;0.70;;
22579;SDS011;11456;47.030;15.396;2023-08-06T13:41:53;0.95;;;0.80;;
22579;SDS011;11456;47.030;15.396;2023-08-06T13:44:20;0.70;;;0.60;;
22579;SDS011;11456;47.030;15.396;2023-08-06T13:46:47;1.98;;;0.60;;
22579;SDS011;11456;47.030;15.396;2023-08-06T13:49:13;0.60;;;0.60;;
22579;SDS011;11456;47.030;15.396;2023-08-06T13:51:40;0.75;;;0.40;;
22579;SDS011;11456;47.030;15.396;2023-08-06T13:54:07;0.68;;;0.60;;
22579;SDS011;11456;47.030;15.396;2023-08-06T13:56:34;0.75;;;0.70;;
22579;SDS011;11456;47.030;15.396;2023-08-06T13:59:01;0.70;;;0.70;;
22579;SDS011;11456;47.030;15.396;2023-08-06T14:01:28;0.73;;;0.73;;
22579;SDS011;11456;47.030;15.396;2023-08-06T14:04:14;0.90;;;0.60;;
22579;SDS011;11456;47.030;15.396;2023-08-06T14:06:41;2.10;;;0.77;;
22579;SDS011;11456;47.030;15.396;2023-08-06T14:09:08;1.85;;;0.60;;
22579;SDS011;11456;47.030;15.396;2023-08-06T14:11:35;0.98;;;0.63;;
22579;SDS011;11456;47.030;15.396;2023-08-06T14:14:01;0.60;;;0.60;;
22579;SDS011;11456;47.030;15.396;2023-08-06T14:16:29;1.13;;;0.68;;
22579;SDS011;11456;47.030;15.396;2023-08-06T14:18:56;0.75;;;0.60;;
22579;SDS011;11456;47.030;15.396;2023-08-06T14:21:23;2.50;;;0.70;;
22579;SDS011;11456;47.030;15.396;2023-08-06T14:23:49;1.45;;;0.70;;
22579;SDS011;11456;47.030;15.396;2023-08-06T14:26:16;1.08;;;0.60;;
22579;SDS011;11456;47.030;15.396;2023-08-06T14:28:43;0.63;;;0.60;;
22579;SDS011;11456;47.030;15.396;2023-08-06T14:31:11;1.05;;;0.73;;
22579;SDS011;11456;47.030;15.396;2023-08-06T14:33:38;1.48;;;0.68;;
22579;SDS011;11456;47.030;15.396;2023-08-06T14:36:04;0.50;;;0.50;;
22579;SDS011;11456;47.030;15.396;2023-08-06T14:38:31;1.15;;;0.55;;
22579;SDS011;11456;47.030;15.396;2023-08-06T14:41:06;4.53;;;0.80;;
22579;SDS011;11456;47.030;15.396;2023-08-06T14:43:33;0.68;;;0.68;;
22579;SDS011;11456;47.030;15.396;2023-08-06T14:45:59;2.83;;;0.70;;
22579;SDS011;11456;47.030;15.396;2023-08-06T14:48:26;1.70;;;0.45;;